Time;durP1;ratioP1;P1;durP2;ratioP2;P2;SDS_P1;SDS_P2;PMS_P1;PMS_P2;Temp;Humidity;BMP_temperature;BMP_pressure;BME280_temperature;BME280_humidity;BME280_pressure;Samples;Min_cycle;Max_cycle;Signal;HPM_P1;HPM_P2
2022/12/23 00:00:21;;;;;;;8.82;3.72;;;13.40;78.30;;;;;;5052754;28;20048;-58
2022/12/23 00:02:50;;;;;;;4.90;2.20;;;13.40;78.30;;;;;;5050525;28;20068;-58
2022/12/23 00:05:19;;;;;;;4.07;2.55;;;13.50;78.30;;;;;;5067556;28;20047;-59
2022/12/23 00:07:46;;;;;;;3.78;2.60;;;13.40;78.30;;;;;;5064704;28;20048;-58
2022/12/23 00:10:15;;;;;;;7.10;3.28;;;13.40;78.30;;;;;;5069202;28;20512;-58
2022/12/23 00:15:29;;;;;;;6.00;2.80;;;13.40;78.20;;;;;;5067250;28;20120;-56
2022/12/23 00:17:58;;;;;;;8.13;3.05;;;13.50;78.20;;;;;;5065449;28;20114;-58
2022/12/23 00:20:27;;;;;;;6.00;2.60;;;13.40;78.20;;;;;;5056632;28;20040;-58
2022/12/23 00:23:05;;;;;;;3.92;2.40;;;13.40;78.20;;;;;;5069435;28;20102;-56
2022/12/23 00:25:40;;;;;;;5.95;2.60;;;13.40;78.20;;;;;;5030239;28;20080;-56
2022/12/23 00:28:17;;;;;;;4.72;2.78;;;13.50;78.40;;;;;;5034936;28;20092;-58
2022/12/23 00:30:52;;;;;;;3.50;1.85;;;13.50;78.40;;;;;;5054803;28;20567;-58
2022/12/23 00:33:20;;;;;;;;;;;13.50;78.30;;;;;;5067377;28;20123;-57
2022/12/23 00:35:49;;;;;;;5.50;2.45;;;13.50;78.40;;;;;;5064114;28;19935;-57
2022/12/23 00:44:03;;;;;;;4.43;2.25;;;13.50;78.20;;;;;;5054215;28;20121;-54
2022/12/23 00:46:30;;;;;;;6.72;2.40;;;13.50;78.00;;;;;;5050101;28;20052;-58
2022/12/23 00:51:46;;;;;;;2.95;2.08;;;13.50;78.20;;;;;;5055745;28;20048;-57
2022/12/23 00:54:12;;;;;;;7.50;2.17;;;13.50;78.10;;;;;;5068426;28;20548;-58
2022/12/23 00:56:39;;;;;;;2.92;2.10;;;13.50;78.10;;;;;;5054692;28;20603;-56
2022/12/23 00:59:13;;;;;;;3.53;2.00;;;13.50;78.00;;;;;;5048758;28;20605;-58
2022/12/23 01:07:13;;;;;;;7.45;2.25;;;13.50;78.00;;;;;;5069854;28;20413;-58
2022/12/23 01:09:42;;;;;;;4.75;2.60;;;13.50;78.00;;;;;;5041404;28;20082;-58
2022/12/23 01:12:09;;;;;;;4.53;2.38;;;13.50;78.10;;;;;;5057781;28;20050;-56
2022/12/23 01:14:36;;;;;;;5.60;3.13;;;13.50;78.20;;;;;;5049328;28;20055;-57
2022/12/23 01:17:06;;;;;;;7.35;2.72;;;13.50;78.20;;;;;;5054087;28;20044;-59
2022/12/23 01:19:33;;;;;;;5.28;2.80;;;13.50;78.30;;;;;;5057321;28;20112;-59
2022/12/23 01:22:04;;;;;;;7.88;2.97;;;13.50;78.30;;;;;;5047063;28;20048;-57
2022/12/23 01:24:31;;;;;;;7.90;3.03;;;13.50;78.30;;;;;;5046767;28;20094;-57
2022/12/23 01:26:59;;;;;;;6.07;3.03;;;13.50;78.30;;;;;;5039286;28;20049;-56
2022/12/23 01:29:28;;;;;;;6.05;3.08;;;13.50;78.30;;;;;;5067257;28;20072;-56
2022/12/23 01:31:57;;;;;;;6.35;3.08;;;13.50;78.30;;;;;;5060710;28;20054;-58
2022/12/23 01:34:27;;;;;;;6.28;3.28;;;13.60;78.40;;;;;;5062430;28;20568;-57
2022/12/23 01:37:04;;;;;;;4.07;3.00;;;13.60;78.30;;;;;;5067378;28;20523;-57
2022/12/23 01:39:35;;;;;;;6.15;2.97;;;13.50;78.30;;;;;;5052748;28;20123;-57
2022/12/23 01:45:10;;;;;;;5.65;2.90;;;13.60;78.40;;;;;;5053854;28;20504;-58
2022/12/23 01:47:49;;;;;;;4.28;2.88;;;13.60;78.90;;;;;;5051465;28;20050;-57
2022/12/23 01:50:26;;;;;;;4.50;2.80;;;13.60;78.30;;;;;;5060614;28;20045;-57
2022/12/23 01:53:04;;;;;;;3.08;2.70;;;13.60;78.30;;;;;;5057054;28;20060;-59
2022/12/23 01:55:54;;;;;;;5.15;3.13;;;13.60;78.40;;;;;;5049263;28;20436;-57
2022/12/23 01:58:43;;;;;;;4.75;2.67;;;13.60;78.40;;;;;;5047201;28;20091;-57
2022/12/23 02:04:07;;;;;;;5.60;3.58;;;13.60;78.30;;;;;;5054207;28;20463;-58
2022/12/23 02:09:36;;;;;;;4.88;3.05;;;13.60;78.40;;;;;;5041866;28;20114;-57
2022/12/23 02:12:27;;;;;;;6.35;3.53;;;13.60;78.30;;;;;;5051051;28;20074;-57
2022/12/23 02:18:33;;;;;;;5.57;3.83;;;13.60;78.30;;;;;;5053110;28;20049;-57
2022/12/23 02:21:24;;;;;;;7.45;3.78;;;13.60;78.20;;;;;;5030984;28;20041;-57
2022/12/23 02:24:17;;;;;;;7.07;4.10;;;13.60;78.00;;;;;;5048997;28;20040;-57
2022/12/23 02:27:14;;;;;;;7.15;4.57;;;13.60;78.00;;;;;;5061709;28;20078;-58
2022/12/23 02:30:04;;;;;;;6.07;4.00;;;13.60;78.00;;;;;;5035886;28;20094;-57
2022/12/23 02:33:21;;;;;;;6.03;4.35;;;13.60;78.00;;;;;;5052692;28;20497;-58
2022/12/23 02:36:06;;;;;;;9.05;4.75;;;13.60;78.00;;;;;;5064633;28;20067;-58
2022/12/23 02:38:47;;;;;;;8.13;4.22;;;13.50;77.90;;;;;;5015598;28;20049;-57
2022/12/23 02:41:34;;;;;;;7.65;4.75;;;13.60;78.00;;;;;;5033178;28;20069;-58
2022/12/23 02:44:09;;;;;;;7.22;4.40;;;13.50;78.00;;;;;;5065638;28;20062;-56
2022/12/23 02:46:55;;;;;;;5.30;4.15;;;13.50;78.00;;;;;;5053607;28;20041;-58
2022/12/23 02:49:24;;;;;;;6.95;4.38;;;13.50;78.20;;;;;;5053966;28;20041;-56
2022/12/23 02:51:58;;;;;;;9.85;4.97;;;13.50;78.00;;;;;;5060763;28;20037;-59
2022/12/23 02:55:00;;;;;;;8.45;5.03;;;13.50;78.10;;;;;;5061358;28;20410;-57
2022/12/23 02:57:39;;;;;;;7.25;4.60;;;13.50;78.10;;;;;;5050692;28;20106;-57
2022/12/23 03:00:10;;;;;;;6.25;4.80;;;13.50;78.00;;;;;;5057264;28;20068;-57
2022/12/23 03:02:39;;;;;;;7.22;4.75;;;13.50;78.00;;;;;;5059351;28;20500;-57
2022/12/23 03:05:32;;;;;;;8.38;5.32;;;13.50;78.00;;;;;;5065389;28;20044;-58
2022/12/23 03:08:02;;;;;;;11.07;5.90;;;13.50;78.10;;;;;;5046828;28;20075;-58
2022/12/23 03:11:07;;;;;;;9.73;5.35;;;13.50;77.90;;;;;;5067370;28;20040;-56
2022/12/23 03:13:52;;;;;;;;;;;13.60;78.30;;;;;;5056751;28;20174;-57
2022/12/23 03:16:42;;;;;;;8.93;5.18;;;13.60;78.30;;;;;;5061726;28;19925;-55
2022/12/23 03:19:20;;;;;;;7.88;5.43;;;13.60;78.00;;;;;;5080231;23;20051;-48
2022/12/23 03:22:10;;;;;;;9.75;4.93;;;13.60;78.00;;;;;;5070818;28;20071;-49
2022/12/23 03:24:46;;;;;;;10.52;4.90;;;13.50;77.90;;;;;;5058925;28;20048;-46
2022/12/23 03:27:31;;;;;;;7.28;4.75;;;13.50;77.90;;;;;;5072139;28;20036;-48
2022/12/23 03:30:12;;;;;;;5.28;4.15;;;13.60;78.00;;;;;;5051209;28;20033;-47
2022/12/23 03:32:45;;;;;;;8.13;4.57;;;13.50;77.90;;;;;;5047863;28;20068;-47
2022/12/23 03:35:20;;;;;;;11.57;5.50;;;13.50;78.00;;;;;;5033432;28;20573;-46
2022/12/23 03:37:53;;;;;;;8.07;4.72;;;13.50;78.00;;;;;;5033963;28;20041;-50
2022/12/23 03:40:25;;;;;;;8.82;4.35;;;13.50;78.00;;;;;;5069042;28;20032;-48
2022/12/23 03:43:00;;;;;;;8.27;5.32;;;13.50;78.10;;;;;;5065641;28;20048;-48
2022/12/23 03:45:33;;;;;;;7.28;4.57;;;13.50;78.10;;;;;;5051154;28;20047;-47
2022/12/23 03:48:13;;;;;;;8.60;3.67;;;13.50;78.20;;;;;;5056997;28;20049;-47
2022/12/23 03:50:45;;;;;;;11.02;4.43;;;13.50;78.20;;;;;;5041097;28;20049;-49
2022/12/23 03:53:19;;;;;;;8.32;4.20;;;13.40;78.10;;;;;;5048861;28;20076;-51
2022/12/23 03:56:02;;;;;;;11.50;4.15;;;13.40;78.20;;;;;;5052350;28;20048;-50
2022/12/23 03:58:46;;;;;;;6.75;3.47;;;13.40;78.20;;;;;;5044815;28;20486;-48
2022/12/23 04:01:13;;;;;;;5.80;3.55;;;13.40;78.40;;;;;;5043525;28;20052;-51
2022/12/23 04:03:57;;;;;;;5.22;3.42;;;13.40;78.40;;;;;;5051802;28;20060;-50
2022/12/23 04:06:31;;;;;;;5.47;3.50;;;13.30;78.40;;;;;;5051214;28;20516;-48
2022/12/23 04:09:00;;;;;;;10.10;3.97;;;13.30;78.40;;;;;;5050451;28;20045;-50
2022/12/23 04:11:31;;;;;;;6.53;3.47;;;13.30;78.40;;;;;;5051426;28;20051;-49
2022/12/23 04:13:58;;;;;;;10.27;3.42;;;13.30;78.50;;;;;;5060107;28;20045;-49
2022/12/23 04:16:28;;;;;;;8.35;3.75;;;13.30;78.50;;;;;;5048403;28;20060;-50
2022/12/23 04:18:55;;;;;;;5.68;3.60;;;13.30;78.60;;;;;;5050072;28;20040;-49
2022/12/23 04:21:23;;;;;;;7.75;3.72;;;13.30;78.70;;;;;;5040232;28;20038;-48
2022/12/23 04:23:53;;;;;;;6.63;3.47;;;13.30;78.70;;;;;;5038535;28;20037;-49
2022/12/23 04:26:20;;;;;;;6.10;3.28;;;13.20;78.80;;;;;;5049975;28;20045;-51
2022/12/23 04:28:56;;;;;;;5.20;3.28;;;13.30;78.80;;;;;;5043239;28;20052;-50
2022/12/23 04:31:23;;;;;;;6.85;2.90;;;13.20;78.70;;;;;;5040297;28;20041;-50
2022/12/23 04:33:49;;;;;;;7.30;3.65;;;13.20;78.80;;;;;;5046281;28;20053;-48
2022/12/23 04:36:16;;;;;;;5.82;3.97;;;13.20;78.80;;;;;;5057655;28;20072;-49
2022/12/23 04:38:45;;;;;;;7.47;3.22;;;13.20;78.70;;;;;;5046651;28;20076;-49
2022/12/23 04:41:21;;;;;;;7.90;2.80;;;13.20;78.70;;;;;;5040007;28;20088;-50
2022/12/23 04:43:48;;;;;;;9.90;4.40;;;13.20;78.80;;;;;;5044198;28;20041;-49
2022/12/23 04:46:21;;;;;;;5.35;3.30;;;13.20;78.70;;;;;;5040017;28;20115;-49
2022/12/23 04:48:51;;;;;;;;;;;13.20;78.70;;;;;;5041177;28;20517;-47
2022/12/23 04:51:17;;;;;;;6.75;3.15;;;13.30;79.00;;;;;;5040692;28;19943;-53
2022/12/23 04:53:47;;;;;;;5.72;3.25;;;13.20;78.40;;;;;;5038752;28;20493;-50
2022/12/23 04:56:16;;;;;;;4.00;2.63;;;13.20;78.50;;;;;;5041184;28;20056;-49
2022/12/23 04:58:43;;;;;;;4.75;3.10;;;13.20;78.60;;;;;;5065797;28;20041;-49
2022/12/23 05:01:15;;;;;;;7.38;3.42;;;13.20;78.50;;;;;;5049014;28;20045;-50
2022/12/23 05:03:42;;;;;;;6.25;3.20;;;13.20;78.60;;;;;;5050436;28;20448;-47
2022/12/23 05:06:09;;;;;;;5.70;2.88;;;13.20;78.60;;;;;;5042646;28;20051;-49
2022/12/23 05:08:35;;;;;;;7.75;3.17;;;13.20;78.60;;;;;;5048819;28;20051;-50
2022/12/23 05:11:03;;;;;;;4.72;3.33;;;13.20;78.60;;;;;;5046292;28;20053;-48
2022/12/23 05:13:32;;;;;;;7.47;3.40;;;13.20;78.50;;;;;;5044227;28;20048;-49
2022/12/23 05:16:01;;;;;;;4.03;2.80;;;13.20;78.40;;;;;;5043620;28;20053;-48
2022/12/23 05:18:27;;;;;;;5.13;3.33;;;13.20;79.00;;;;;;5049375;28;20068;-50
2022/12/23 05:21:04;;;;;;;6.57;3.70;;;13.20;78.40;;;;;;5050491;28;20632;-50
2022/12/23 05:23:35;;;;;;;7.50;3.67;;;13.30;78.40;;;;;;5046152;28;20778;-50
2022/12/23 05:26:02;;;;;;;5.93;4.03;;;13.30;78.40;;;;;;5042489;28;20390;-50
2022/12/23 05:28:31;;;;;;;7.72;5.03;;;13.30;78.90;;;;;;5049699;28;20052;-51
2022/12/23 05:31:03;;;;;;;9.70;5.53;;;13.30;78.30;;;;;;5044881;28;20041;-50
2022/12/23 05:33:34;;;;;;;7.68;5.18;;;13.30;78.20;;;;;;5050439;28;20052;-50
2022/12/23 05:36:03;;;;;;;6.78;5.13;;;13.30;78.20;;;;;;5034747;28;20046;-48
2022/12/23 05:38:37;;;;;;;9.73;5.45;;;13.30;78.20;;;;;;5030159;28;20049;-50
2022/12/23 05:41:10;;;;;;;7.45;4.60;;;13.30;78.10;;;;;;5040229;28;20914;-48
2022/12/23 05:43:37;;;;;;;4.68;3.65;;;13.30;78.10;;;;;;5029911;28;20042;-49
2022/12/23 05:46:06;;;;;;;8.80;4.22;;;13.30;78.00;;;;;;5046692;28;20124;-50
2022/12/23 05:48:35;;;;;;;5.85;3.92;;;13.40;78.00;;;;;;5032205;28;20041;-47
2022/12/23 05:51:02;;;;;;;8.15;3.95;;;13.40;78.00;;;;;;5053069;28;20067;-48
2022/12/23 05:53:28;;;;;;;7.43;4.75;;;13.40;77.90;;;;;;5041025;28;20055;-51
2022/12/23 05:55:55;;;;;;;5.30;3.63;;;13.40;77.90;;;;;;5050810;28;20127;-48
2022/12/23 05:58:22;;;;;;;7.53;4.32;;;13.40;77.90;;;;;;5052593;28;20037;-47
2022/12/23 06:00:52;;;;;;;9.55;4.18;;;13.40;77.90;;;;;;5050068;28;20408;-48
2022/12/23 06:03:18;;;;;;;7.82;3.40;;;13.40;77.80;;;;;;5040505;28;20710;-49
2022/12/23 06:05:56;;;;;;;8.40;4.22;;;13.40;77.70;;;;;;5051011;28;20394;-48
2022/12/23 06:08:25;;;;;;;8.13;4.05;;;13.40;77.70;;;;;;5040886;28;20084;-49
2022/12/23 06:10:52;;;;;;;8.35;4.25;;;13.40;77.70;;;;;;5050109;28;20067;-48
2022/12/23 06:13:21;;;;;;;6.18;3.58;;;13.40;77.70;;;;;;5040542;28;20047;-50
2022/12/23 06:15:53;;;;;;;6.05;3.90;;;13.40;77.70;;;;;;5044883;28;20516;-48
2022/12/23 06:18:19;;;;;;;7.43;4.47;;;13.40;77.60;;;;;;5049880;28;20045;-49
2022/12/23 06:20:47;;;;;;;7.40;4.38;;;13.40;77.50;;;;;;5036232;28;20044;-48
2022/12/23 06:23:16;;;;;;;5.65;4.43;;;13.40;77.50;;;;;;5028575;28;20052;-53
2022/12/23 06:25:45;;;;;;;8.25;4.43;;;13.40;77.50;;;;;;5044424;28;20091;-51
2022/12/23 06:28:12;;;;;;;6.53;4.32;;;13.40;77.40;;;;;;5042103;28;20098;-51
2022/12/23 06:30:41;;;;;;;7.65;4.30;;;13.50;77.40;;;;;;5042577;28;20783;-52
2022/12/23 06:33:08;;;;;;;6.18;4.50;;;13.40;77.10;;;;;;5031794;28;20544;-50
2022/12/23 06:35:41;;;;;;;8.40;4.90;;;13.50;77.20;;;;;;5045519;28;20128;-51
2022/12/23 06:38:08;;;;;;;;;;;13.50;77.10;;;;;;5051016;28;20040;-48
2022/12/23 06:40:38;;;;;;;6.97;4.32;;;13.50;77.00;;;;;;5029183;28;19921;-49
2022/12/23 06:43:05;;;;;;;7.88;4.53;;;13.50;77.20;;;;;;5027595;28;20049;-50
2022/12/23 06:45:38;;;;;;;6.93;4.93;;;13.50;76.90;;;;;;5039804;28;20659;-50
2022/12/23 06:48:08;;;;;;;6.20;5.07;;;13.50;76.90;;;;;;5048004;28;20055;-49
2022/12/23 06:50:35;;;;;;;9.25;4.70;;;13.50;77.00;;;;;;5039501;28;20091;-49
2022/12/23 06:53:04;;;;;;;8.20;5.20;;;13.50;77.00;;;;;;5042507;28;20707;-47
2022/12/23 06:55:31;;;;;;;9.70;5.80;;;13.50;77.00;;;;;;5056703;28;20105;-48
2022/12/23 06:58:00;;;;;;;10.18;5.63;;;13.50;76.90;;;;;;5039442;28;20120;-48
2022/12/23 07:00:34;;;;;;;8.63;5.25;;;13.50;77.60;;;;;;5066635;28;20099;-50
2022/12/23 07:03:06;;;;;;;6.35;4.75;;;13.50;77.00;;;;;;5067041;28;20044;-51
2022/12/23 07:05:37;;;;;;;8.25;5.38;;;13.50;77.00;;;;;;5038377;28;20044;-51
2022/12/23 07:08:04;;;;;;;7.80;5.45;;;13.50;77.00;;;;;;5050619;28;20510;-49
2022/12/23 07:10:33;;;;;;;8.98;5.82;;;13.50;77.00;;;;;;5028113;28;20053;-47
2022/12/23 07:13:00;;;;;;;7.10;5.47;;;13.50;77.00;;;;;;5027550;28;20037;-50
2022/12/23 07:15:29;;;;;;;10.90;6.30;;;13.50;77.10;;;;;;5045701;28;20521;-49
2022/12/23 07:17:58;;;;;;;10.43;5.93;;;13.50;77.20;;;;;;5008085;28;1036219;-50
2022/12/23 07:20:25;;;;;;;10.35;5.22;;;13.50;77.20;;;;;;5050835;28;20076;-49
2022/12/23 07:22:55;;;;;;;10.48;5.60;;;13.40;77.20;;;;;;5045355;28;20520;-51
2022/12/23 07:25:23;;;;;;;11.40;5.88;;;13.40;77.20;;;;;;5047285;28;20068;-49
2022/12/23 07:27:54;;;;;;;7.82;5.60;;;13.50;77.30;;;;;;5046305;28;20041;-48
2022/12/23 07:30:27;;;;;;;8.73;5.95;;;13.40;77.30;;;;;;5032051;28;20510;-50
2022/12/23 07:32:57;;;;;;;10.38;5.43;;;13.40;77.30;;;;;;5016576;28;20052;-48
2022/12/23 07:35:26;;;;;;;7.40;4.93;;;13.40;77.30;;;;;;5051390;28;20059;-50
2022/12/23 07:37:57;;;;;;;6.90;5.18;;;13.40;77.40;;;;;;5037720;28;20052;-47
2022/12/23 07:40:24;;;;;;;9.73;4.68;;;13.40;77.40;;;;;;5032383;28;20099;-52
2022/12/23 07:42:58;;;;;;;6.88;5.32;;;13.40;77.30;;;;;;5041933;28;20041;-49
2022/12/23 07:45:27;;;;;;;8.05;4.72;;;13.40;77.20;;;;;;5042892;28;20037;-48
2022/12/23 07:47:55;;;;;;;10.82;5.70;;;13.40;77.20;;;;;;5042296;28;20061;-47
2022/12/23 07:50:27;;;;;;;9.75;5.57;;;13.50;77.30;;;;;;5041792;28;20061;-50
2022/12/23 07:52:56;;;;;;;7.22;5.13;;;13.50;77.20;;;;;;5039712;28;20056;-48
2022/12/23 07:55:25;;;;;;;6.25;4.50;;;13.40;77.20;;;;;;5036524;28;20092;-51
2022/12/23 07:57:52;;;;;;;8.63;5.78;;;13.40;77.20;;;;;;5028411;28;20131;-51
2022/12/23 08:00:19;;;;;;;7.90;4.95;;;13.50;77.20;;;;;;5040600;28;20033;-51
2022/12/23 08:02:47;;;;;;;6.88;5.38;;;13.40;77.10;;;;;;5047873;28;20042;-47
2022/12/23 08:05:14;;;;;;;7.80;4.93;;;13.40;77.10;;;;;;5049157;28;20443;-48
2022/12/23 08:07:43;;;;;;;8.30;5.00;;;13.40;77.20;;;;;;5053432;28;20037;-47
2022/12/23 08:10:11;;;;;;;6.22;4.20;;;13.40;77.20;;;;;;5051372;28;20048;-48
2022/12/23 08:12:38;;;;;;;9.13;5.38;;;13.40;77.20;;;;;;5043434;28;20056;-51
2022/12/23 08:15:06;;;;;;;7.72;4.43;;;13.40;77.20;;;;;;5031342;28;20052;-47
2022/12/23 08:17:33;;;;;;;8.27;4.70;;;13.40;77.30;;;;;;5036678;28;20042;-52
2022/12/23 08:19:59;;;;;;;8.77;5.18;;;13.40;77.30;;;;;;5037397;28;20068;-47
2022/12/23 08:22:26;;;;;;;7.53;4.25;;;13.40;77.40;;;;;;5039662;28;20056;-54
2022/12/23 08:24:53;;;;;;;10.35;4.60;;;13.40;77.30;;;;;;5035859;28;20143;-51
2022/12/23 08:27:19;;;;;;;8.65;4.95;;;13.40;77.30;;;;;;5035067;28;20226;-49
2022/12/23 08:29:46;;;;;;;7.30;5.00;;;13.40;77.30;;;;;;5047195;28;20037;-48
2022/12/23 08:32:12;;;;;;;11.10;4.53;;;13.40;77.30;;;;;;5043413;28;20041;-50
2022/12/23 08:34:39;;;;;;;7.05;5.75;;;13.50;77.50;;;;;;5030164;28;20041;-52
2022/12/23 08:37:06;;;;;;;8.85;4.53;;;13.40;77.40;;;;;;5031485;28;20128;-50
2022/12/23 08:39:32;;;;;;;8.15;4.57;;;13.40;77.40;;;;;;5046289;28;20125;-51
2022/12/23 08:42:02;;;;;;;6.65;4.40;;;13.40;77.40;;;;;;5040852;28;20117;-50
2022/12/23 08:44:31;;;;;;;8.80;4.47;;;13.50;77.40;;;;;;5050171;28;20397;-47
2022/12/23 08:46:58;;;;;;;5.43;4.22;;;13.50;77.40;;;;;;5047223;28;20101;-50
2022/12/23 08:49:24;;;;;;;7.65;4.35;;;13.50;77.40;;;;;;5048620;28;20115;-52
2022/12/23 08:51:51;;;;;;;6.68;4.50;;;13.50;77.40;;;;;;5039937;28;20478;-50
2022/12/23 08:54:19;;;;;;;9.07;4.75;;;13.50;77.40;;;;;;5041271;28;20036;-48
2022/12/23 08:56:46;;;;;;;5.15;4.32;;;13.50;77.40;;;;;;5042574;28;20632;-50
2022/12/23 08:59:15;;;;;;;7.30;5.03;;;13.50;77.40;;;;;;5049586;28;20056;-50
2022/12/23 09:01:45;;;;;;;7.25;4.75;;;13.60;77.40;;;;;;5043019;28;20048;-50
2022/12/23 09:04:12;;;;;;;9.02;5.32;;;13.60;77.40;;;;;;5051169;28;20037;-47
2022/12/23 09:06:41;;;;;;;9.27;5.47;;;13.60;77.50;;;;;;5046489;28;20108;-50
2022/12/23 09:09:10;;;;;;;7.32;5.13;;;13.60;77.40;;;;;;5051510;28;20137;-51
2022/12/23 09:11:39;;;;;;;7.80;5.43;;;13.60;77.40;;;;;;5031361;28;20052;-48
2022/12/23 09:14:07;;;;;;;7.63;5.22;;;13.60;77.40;;;;;;5030268;28;20068;-51
2022/12/23 09:16:37;;;;;;;9.95;5.45;;;13.60;77.30;;;;;;5050468;28;20041;-50
2022/12/23 09:19:08;;;;;;;9.55;5.05;;;13.60;77.20;;;;;;5080553;22;20068;-54
2022/12/23 09:21:35;;;;;;;10.82;5.40;;;13.60;77.10;;;;;;5082331;28;20117;-55
2022/12/23 09:24:07;;;;;;;5.80;4.78;;;13.60;77.00;;;;;;5059105;28;20040;-54
2022/12/23 09:26:34;;;;;;;9.68;5.57;;;13.70;77.00;;;;;;5050609;28;20071;-53
2022/12/23 09:29:04;;;;;;;9.02;5.70;;;13.60;76.90;;;;;;5061009;28;20060;-55
2022/12/23 09:31:31;;;;;;;7.95;5.18;;;13.60;76.90;;;;;;5064089;28;20520;-53
2022/12/23 09:34:06;;;;;;;7.70;5.28;;;13.60;76.90;;;;;;5051573;28;20127;-54
2022/12/23 09:36:35;;;;;;;8.02;4.93;;;13.60;76.90;;;;;;5064248;28;20519;-53
2022/12/23 09:39:08;;;;;;;6.40;4.65;;;13.60;76.80;;;;;;5056658;28;20043;-55
2022/12/23 09:41:55;;;;;;;6.00;4.60;;;13.60;76.90;;;;;;5070662;28;20489;-55
2022/12/23 09:44:43;;;;;;;7.70;5.10;;;13.60;76.90;;;;;;5056688;28;20105;-51
2022/12/23 09:47:16;;;;;;;7.80;5.57;;;13.60;76.90;;;;;;5057327;28;20535;-55
2022/12/23 09:49:56;;;;;;;5.57;4.97;;;13.60;76.90;;;;;;5050176;28;20074;-51
2022/12/23 09:52:48;;;;;;;5.47;4.70;;;13.60;76.90;;;;;;5055860;28;20074;-55
2022/12/23 09:55:17;;;;;;;8.97;4.83;;;13.60;77.00;;;;;;5050965;28;20040;-55
2022/12/23 09:58:13;;;;;;;6.53;4.53;;;13.60;77.10;;;;;;5059282;28;20124;-57
2022/12/23 10:00:55;;;;;;;7.20;4.68;;;13.60;77.10;;;;;;5049086;28;20500;-55
2022/12/23 10:03:31;;;;;;;9.63;4.88;;;13.60;77.20;;;;;;5049048;28;20058;-56
2022/12/23 10:06:10;;;;;;;4.43;3.80;;;13.60;77.10;;;;;;5059774;28;20059;-56
2022/12/23 10:09:03;;;;;;;5.55;4.47;;;13.60;77.10;;;;;;5057499;28;20541;-55
2022/12/23 10:11:40;;;;;;;6.57;3.75;;;13.70;77.10;;;;;;5046350;28;20053;-55
2022/12/23 10:14:19;;;;;;;6.43;4.15;;;13.70;77.10;;;;;;5063628;28;20038;-56
2022/12/23 10:17:01;;;;;;;6.75;3.90;;;13.70;77.00;;;;;;5058528;28;20041;-56
2022/12/23 10:19:41;;;;;;;8.50;4.32;;;13.70;77.10;;;;;;5049537;28;20075;-56
2022/12/23 10:22:20;;;;;;;6.95;3.90;;;13.70;77.00;;;;;;5068623;28;20032;-56
2022/12/23 10:24:47;;;;;;;8.07;4.30;;;13.80;77.10;;;;;;5061532;28;20033;-57
2022/12/23 10:27:28;;;;;;;4.20;3.72;;;13.80;77.00;;;;;;5062689;28;20036;-56
2022/12/23 10:29:58;;;;;;;6.05;4.18;;;13.80;76.80;;;;;;5042275;28;20053;-57
2022/12/23 10:32:51;;;;;;;4.35;3.92;;;13.80;76.80;;;;;;5061795;28;20071;-55
2022/12/23 10:35:42;;;;;;;4.03;3.63;;;13.90;76.80;;;;;;5061715;28;20047;-55
2022/12/23 10:38:21;;;;;;;4.05;3.65;;;13.90;76.50;;;;;;5053842;28;20040;-57
2022/12/23 10:41:29;;;;;;;4.57;3.13;;;13.90;76.40;;;;;;5067078;28;20076;-56
2022/12/23 10:44:26;;;;;;;5.22;3.38;;;14.00;76.30;;;;;;5039332;28;20045;-57
2022/12/23 10:46:59;;;;;;;4.28;3.72;;;13.90;76.30;;;;;;5057865;28;20453;-56
2022/12/23 10:49:55;;;;;;;6.18;2.97;;;14.00;76.40;;;;;;5060738;28;20510;-57
2022/12/23 10:52:26;;;;;;;6.15;3.40;;;13.90;76.00;;;;;;5059117;28;20122;-54
2022/12/23 10:54:53;;;;;;;5.00;2.80;;;13.90;76.10;;;;;;5061856;28;20046;-56
2022/12/23 10:57:20;;;;;;;3.35;2.90;;;13.90;76.10;;;;;;5068151;28;20505;-55
2022/12/23 10:59:47;;;;;;;7.65;3.33;;;14.00;76.10;;;;;;5058813;28;20049;-56
2022/12/23 11:02:13;;;;;;;5.00;4.20;;;13.90;76.00;;;;;;5070778;28;20532;-56
2022/12/23 11:04:43;;;;;;;5.72;3.70;;;13.90;76.00;;;;;;5070114;28;20064;-57
2022/12/23 11:07:15;;;;;;;4.35;3.60;;;13.90;75.90;;;;;;5073462;28;20032;-58
2022/12/23 11:10:06;;;;;;;5.30;3.40;;;14.00;75.90;;;;;;5066255;28;20036;-55
2022/12/23 11:12:45;;;;;;;5.93;3.88;;;13.90;75.90;;;;;;5067854;28;20067;-54
2022/12/23 11:15:31;;;;;;;7.72;3.70;;;13.90;75.80;;;;;;5067525;28;20045;-57
2022/12/23 11:18:12;;;;;;;6.28;5.20;;;13.90;75.90;;;;;;5068542;28;20044;-56
2022/12/23 11:20:42;;;;;;;9.40;5.82;;;13.90;75.80;;;;;;5058706;28;20037;-58
2022/12/23 11:23:25;;;;;;;7.40;6.13;;;13.90;76.00;;;;;;5062404;28;20041;-58
2022/12/23 11:26:12;;;;;;;9.80;7.15;;;14.00;76.00;;;;;;5066318;28;20075;-57
2022/12/23 11:28:47;;;;;;;7.72;5.07;;;14.00;76.00;;;;;;5064528;28;20381;-57
2022/12/23 11:31:15;;;;;;;7.25;6.22;;;14.00;76.10;;;;;;5061744;28;20041;-57
2022/12/23 11:34:01;;;;;;;6.55;5.60;;;14.00;76.00;;;;;;5062757;28;20110;-57
2022/12/23 11:36:30;;;;;;;5.38;4.80;;;14.00;75.80;;;;;;5061915;28;20041;-57
2022/12/23 11:39:33;;;;;;;6.20;5.30;;;14.00;75.90;;;;;;5062287;28;20044;-58
2022/12/23 11:42:11;;;;;;;10.00;4.93;;;14.00;76.00;;;;;;5055617;28;20040;-58
2022/12/23 11:44:43;;;;;;;6.13;3.97;;;14.00;76.00;;;;;;5061439;28;20080;-58
2022/12/23 11:47:22;;;;;;;5.85;4.03;;;14.00;75.90;;;;;;5066760;28;20094;-58
2022/12/23 11:49:51;;;;;;;5.25;3.70;;;14.00;75.80;;;;;;5065437;28;20415;-56
2022/12/23 11:52:20;;;;;;;5.63;3.58;;;14.00;75.90;;;;;;5071715;28;20072;-57
2022/12/23 11:54:54;;;;;;;6.85;3.47;;;14.00;75.90;;;;;;5046766;28;20461;-58
2022/12/23 11:57:38;;;;;;;6.53;3.50;;;13.90;75.80;;;;;;5064744;28;20033;-58
2022/12/23 12:00:16;;;;;;;5.30;3.72;;;13.90;75.80;;;;;;5059779;28;20037;-58
2022/12/23 12:02:45;;;;;;;4.70;3.65;;;13.90;75.90;;;;;;5046947;28;20119;-58
2022/12/23 12:05:37;;;;;;;11.90;6.70;;;13.90;76.00;;;;;;5065212;28;20124;-59
2022/12/23 12:08:09;;;;;;;9.43;5.10;;;13.90;76.10;;;;;;5062771;28;20497;-58
2022/12/23 12:10:37;;;;;;;7.88;4.88;;;13.80;76.00;;;;;;5055346;28;20547;-58
2022/12/23 12:13:17;;;;;;;7.45;5.15;;;13.80;76.10;;;;;;5062723;28;20037;-59
2022/12/23 12:15:52;;;;;;;4.72;3.85;;;13.80;76.20;;;;;;5068242;28;20040;-57
2022/12/23 12:18:19;;;;;;;4.20;3.72;;;13.80;76.40;;;;;;5062680;28;20037;-57
2022/12/23 12:20:52;;;;;;;4.43;3.35;;;13.80;76.40;;;;;;5051381;28;20132;-58
2022/12/23 12:23:18;;;;;;;;;;;13.80;76.60;;;;;;5062023;28;20047;-57
2022/12/23 12:25:50;;;;;;;5.30;4.32;;;13.90;76.70;;;;;;5064013;28;20043;-57
2022/12/23 12:28:22;;;;;;;5.35;4.47;;;13.90;76.60;;;;;;5046005;28;20112;-55
2022/12/23 12:31:30;;;;;;;26.85;15.70;;;14.00;76.70;;;;;;5055884;28;20044;-57
2022/12/23 12:34:08;;;;;;;34.75;19.23;;;13.90;76.70;;;;;;5061761;28;20075;-58
2022/12/23 12:36:47;;;;;;;15.13;10.52;;;14.00;76.80;;;;;;5055180;28;20120;-59
2022/12/23 12:39:24;;;;;;;12.25;6.60;;;14.00;76.80;;;;;;5065320;28;20040;-58
2022/12/23 12:42:01;;;;;;;8.13;5.75;;;14.10;76.80;;;;;;5059870;28;20033;-54
2022/12/23 12:44:46;;;;;;;6.75;4.38;;;14.10;76.60;;;;;;5054196;28;20549;-59
2022/12/23 12:47:23;;;;;;;7.15;4.15;;;14.10;76.40;;;;;;5054358;28;20486;-58
2022/12/23 12:50:26;;;;;;;3.17;2.88;;;14.10;76.40;;;;;;5057668;28;20045;-58
2022/12/23 12:52:58;;;;;;;4.47;2.95;;;14.20;76.00;;;;;;5061368;28;20037;-58
2022/12/23 12:55:32;;;;;;;5.15;2.60;;;14.20;76.00;;;;;;5045834;28;20549;-58
2022/12/23 12:58:01;;;;;;;5.07;2.40;;;14.20;75.80;;;;;;5047876;28;20036;-57
2022/12/23 13:00:31;;;;;;;4.15;2.75;;;14.10;75.50;;;;;;5067049;28;20083;-57
2022/12/23 13:03:21;;;;;;;3.42;2.50;;;14.10;75.60;;;;;;5059971;28;20098;-57
2022/12/23 13:05:54;;;;;;;2.42;2.17;;;14.10;75.60;;;;;;5063602;28;20609;-57
2022/12/23 13:08:39;;;;;;;6.53;2.45;;;14.00;75.60;;;;;;5065902;28;20068;-58
2022/12/23 13:11:24;;;;;;;5.25;1.92;;;14.00;75.70;;;;;;5062547;28;20120;-58
2022/12/23 13:14:00;;;;;;;3.08;1.60;;;14.00;75.80;;;;;;5051776;28;20041;-57
2022/12/23 13:16:39;;;;;;;2.10;1.52;;;13.90;75.80;;;;;;5050754;28;20157;-57
2022/12/23 13:19:48;;;;;;;1.95;1.35;;;13.90;76.00;;;;;;5063053;28;20049;-58
2022/12/23 13:22:17;;;;;;;2.60;1.50;;;13.90;76.10;;;;;;5066061;28;20033;-57
2022/12/23 13:25:09;;;;;;;3.22;2.10;;;13.80;76.10;;;;;;5065056;28;20059;-57
2022/12/23 13:28:00;;;;;;;3.03;1.40;;;13.80;76.50;;;;;;5067626;28;20691;-58
2022/12/23 13:30:35;;;;;;;2.83;1.17;;;13.80;76.40;;;;;;5065834;28;20048;-57
2022/12/23 13:33:15;;;;;;;2.33;1.08;;;13.70;76.30;;;;;;5056516;28;20041;-56
2022/12/23 13:35:54;;;;;;;3.92;1.38;;;13.70;76.30;;;;;;5068027;28;20064;-58
2022/12/23 13:39:04;;;;;;;1.65;0.98;;;13.70;76.40;;;;;;5066395;28;20120;-59
2022/12/23 13:41:45;;;;;;;1.33;1.23;;;13.70;76.60;;;;;;5065347;28;20113;-57
2022/12/23 13:44:14;;;;;;;1.85;1.40;;;13.70;76.50;;;;;;5048551;28;20071;-59
2022/12/23 13:47:10;;;;;;;2.08;0.95;;;13.60;76.50;;;;;;5068345;28;20131;-54
2022/12/23 13:50:04;;;;;;;1.40;1.30;;;13.60;76.60;;;;;;5069058;28;20040;-59
2022/12/23 13:52:49;;;;;;;1.02;1.02;;;13.60;76.60;;;;;;5050221;28;20116;-57